createdAt,value
2023-04-21T00:00:09.558Z,6.00
2023-04-21T00:01:09.699Z,6.20
2023-04-21T00:02:09.888Z,6.10
2023-04-21T00:03:10.177Z,5.90
2023-04-21T00:04:10.279Z,5.90
2023-04-21T00:05:10.646Z,5.90
2023-04-21T00:06:10.560Z,5.70
2023-04-21T00:07:10.760Z,6.10
2023-04-21T00:08:10.913Z,6.10
2023-04-21T00:09:11.112Z,6.00
2023-04-21T00:10:11.263Z,5.60
2023-04-21T00:11:11.463Z,6.10
2023-04-21T00:12:11.661Z,5.70
2023-04-21T00:13:11.797Z,6.10
2023-04-21T00:14:11.952Z,6.00
2023-04-21T00:15:12.131Z,5.90
2023-04-21T00:16:12.359Z,6.50
2023-04-21T00:17:12.463Z,6.10
2023-04-21T00:18:12.616Z,6.10
2023-04-21T00:19:12.778Z,5.90
2023-04-21T00:20:12.943Z,6.00
2023-04-21T00:21:13.138Z,6.00
2023-04-21T00:22:13.327Z,6.00
2023-04-21T00:23:13.469Z,5.80
2023-04-21T00:24:13.660Z,6.00
2023-04-21T00:25:13.865Z,5.80
2023-04-21T00:26:13.970Z,5.90
2023-04-21T00:27:14.128Z,6.20
2023-04-21T00:28:14.321Z,5.70
2023-04-21T00:29:14.510Z,5.90
2023-04-21T00:30:14.662Z,6.00
2023-04-21T00:31:14.840Z,5.80
2023-04-21T00:32:14.993Z,5.90
2023-04-21T00:33:15.144Z,6.00
2023-04-21T00:34:15.342Z,5.80
2023-04-21T00:35:15.519Z,5.50
2023-04-21T00:36:15.713Z,5.30
2023-04-21T00:37:15.878Z,5.60
2023-04-21T00:38:16.038Z,6.20
2023-04-21T00:39:16.188Z,5.80
2023-04-21T00:40:16.360Z,6.00
2023-04-21T00:41:16.518Z,5.90
2023-04-21T00:42:16.712Z,5.80
2023-04-21T00:43:16.860Z,6.10
2023-04-21T00:44:17.011Z,5.70
2023-04-21T00:45:17.209Z,6.00
2023-04-21T00:46:17.437Z,5.80
2023-04-21T00:47:17.552Z,5.80
2023-04-21T00:48:17.711Z,5.60
2023-04-21T00:49:18.164Z,5.90
2023-04-21T00:50:18.067Z,5.80
2023-04-21T00:51:18.257Z,6.00
2023-04-21T00:52:18.436Z,5.70
2023-04-21T00:53:18.576Z,6.00
2023-04-21T00:54:18.741Z,5.90
2023-04-21T00:55:18.927Z,6.10
2023-04-21T00:56:19.097Z,6.00
2023-04-21T00:57:19.255Z,6.00
2023-04-21T00:58:19.439Z,6.30
2023-04-21T00:59:19.657Z,6.20
2023-04-21T01:00:19.754Z,5.60
2023-04-21T01:01:19.961Z,6.00
2023-04-21T01:02:20.187Z,6.00
2023-04-21T01:03:20.368Z,6.10
2023-04-21T01:04:20.501Z,5.90
2023-04-21T01:05:20.606Z,6.10
2023-04-21T01:06:20.751Z,6.10
2023-04-21T01:07:20.935Z,6.00
2023-04-21T01:08:21.090Z,5.90
2023-04-21T01:09:21.447Z,6.30
2023-04-21T01:10:21.450Z,6.00
2023-04-21T01:11:21.621Z,5.90
2023-04-21T01:12:21.795Z,6.60
2023-04-21T01:13:21.973Z,6.40
2023-04-21T01:14:22.130Z,5.70
2023-04-21T01:15:22.293Z,6.50
2023-04-21T01:16:22.537Z,5.90
2023-04-21T01:17:22.630Z,6.50
2023-04-21T01:18:22.794Z,6.40
2023-04-21T01:19:22.952Z,6.10
2023-04-21T01:20:23.129Z,6.00
2023-04-21T01:21:23.299Z,6.10
2023-04-21T01:22:23.477Z,6.50
2023-04-21T01:23:23.641Z,6.20
2023-04-21T01:24:23.797Z,5.80
2023-04-21T01:25:23.984Z,6.30
2023-04-21T01:26:24.119Z,6.60
2023-04-21T01:27:24.337Z,6.40
2023-04-21T01:28:24.508Z,6.40
2023-04-21T01:29:24.646Z,6.80
2023-04-21T01:30:24.805Z,6.40
2023-04-21T01:31:24.980Z,6.80
2023-04-21T01:32:25.237Z,6.10
2023-04-21T01:33:25.325Z,6.60
2023-04-21T01:34:25.498Z,6.30
2023-04-21T01:35:25.649Z,6.50
2023-04-21T01:36:25.851Z,6.30
2023-04-21T01:37:25.998Z,6.50
2023-04-21T01:38:26.168Z,6.60
2023-04-21T01:39:26.355Z,6.80
2023-04-21T01:40:26.524Z,6.90
2023-04-21T01:41:26.719Z,7.10
2023-04-21T01:42:26.860Z,6.90
2023-04-21T01:43:27.012Z,6.80
2023-04-21T01:44:27.209Z,6.80
2023-04-21T01:45:27.385Z,7.10
2023-04-21T01:46:27.743Z,6.80
2023-04-21T01:47:27.756Z,6.70
2023-04-21T01:48:27.892Z,6.90
2023-04-21T01:49:28.074Z,6.90
2023-04-21T01:50:28.248Z,6.60
2023-04-21T01:51:28.418Z,7.00
2023-04-21T01:52:28.564Z,6.90
2023-04-21T01:53:28.721Z,6.60
2023-04-21T01:54:28.913Z,7.50
2023-04-21T01:55:29.080Z,6.80
2023-04-21T01:56:29.298Z,7.00
2023-04-21T01:57:29.436Z,7.30
2023-04-21T01:58:29.590Z,7.30
2023-04-21T01:59:29.778Z,7.30
2023-04-21T02:00:29.967Z,7.20
2023-04-21T02:01:30.136Z,7.50
2023-04-21T02:02:30.373Z,7.20
2023-04-21T02:03:30.635Z,7.10
2023-04-21T02:04:30.730Z,7.10
2023-04-21T02:05:30.849Z,7.60
2023-04-21T02:06:31.003Z,7.40
2023-04-21T02:07:31.150Z,6.90
2023-04-21T02:08:31.308Z,6.70
2023-04-21T02:09:31.529Z,7.00
2023-04-21T02:10:31.623Z,7.60
2023-04-21T02:11:31.825Z,7.00
2023-04-21T02:12:32.024Z,7.80
2023-04-21T02:13:32.150Z,7.40
2023-04-21T02:14:32.340Z,7.40
2023-04-21T02:15:32.501Z,7.00
2023-04-21T02:16:32.698Z,7.20
2023-04-21T02:17:32.889Z,7.30
2023-04-21T02:18:32.973Z,7.60
2023-04-21T02:19:33.235Z,7.20
2023-04-21T02:20:33.344Z,7.50
2023-04-21T02:21:33.521Z,7.00
2023-04-21T02:22:33.670Z,7.60
2023-04-21T02:23:33.923Z,7.70
2023-04-21T02:24:34.044Z,7.40
2023-04-21T02:25:34.185Z,7.20
2023-04-21T02:26:34.355Z,7.10
2023-04-21T02:27:34.529Z,7.70
2023-04-21T02:28:34.684Z,7.70
2023-04-21T02:29:34.878Z,7.60
2023-04-21T02:30:35.104Z,7.50
2023-04-21T02:31:43.300Z,7.50
2023-04-21T02:32:36.432Z,7.80
2023-04-21T02:33:35.559Z,7.60
2023-04-21T02:34:35.717Z,7.70
2023-04-21T02:35:35.894Z,7.80
2023-04-21T02:36:36.083Z,7.50
2023-04-21T02:37:36.226Z,8.00
2023-04-21T02:38:36.378Z,7.60
2023-04-21T02:39:36.574Z,7.70
2023-04-21T02:40:36.753Z,7.80
2023-04-21T02:41:36.980Z,7.90
2023-04-21T02:42:37.121Z,7.90
2023-04-21T02:43:37.324Z,7.80
2023-04-21T02:44:37.510Z,7.80
2023-04-21T02:45:37.638Z,8.20
2023-04-21T02:46:37.883Z,7.40
2023-04-21T02:47:38.080Z,7.80
2023-04-21T02:48:38.244Z,8.50
2023-04-21T02:49:38.399Z,8.00
2023-04-21T02:50:38.600Z,7.80
2023-04-21T02:51:38.768Z,7.90
2023-04-21T02:52:38.912Z,8.00
2023-04-21T02:53:39.158Z,7.90
2023-04-21T02:54:39.286Z,8.00
2023-04-21T02:55:39.479Z,8.30
2023-04-21T02:56:39.624Z,7.60
2023-04-21T02:57:39.810Z,7.80
2023-04-21T02:58:39.966Z,8.00
2023-04-21T02:59:40.121Z,8.10
2023-04-21T03:00:40.363Z,8.30
2023-04-21T03:01:40.604Z,7.90
2023-04-21T03:02:40.863Z,8.20
2023-04-21T03:03:40.915Z,8.90
2023-04-21T03:04:41.138Z,8.20
2023-04-21T03:05:41.179Z,8.50
2023-04-21T03:06:41.398Z,8.80
2023-04-21T03:07:41.520Z,8.40
2023-04-21T03:08:41.696Z,8.40
2023-04-21T03:09:41.857Z,8.80
2023-04-21T03:10:42.050Z,8.80
2023-04-21T03:11:42.200Z,8.30
2023-04-21T03:12:42.342Z,8.50
2023-04-21T03:13:42.543Z,9.00
2023-04-21T03:14:42.728Z,8.70
2023-04-21T03:15:42.900Z,8.80
2023-04-21T03:16:43.102Z,8.40
2023-04-21T03:17:43.284Z,8.60
2023-04-21T03:18:43.403Z,8.30
2023-04-21T03:19:43.596Z,8.40
2023-04-21T03:20:43.744Z,8.30
2023-04-21T03:21:43.958Z,8.40
2023-04-21T03:22:44.155Z,8.90
2023-04-21T03:23:44.274Z,8.40
2023-04-21T03:24:44.452Z,8.60
2023-04-21T03:25:44.633Z,8.70
2023-04-21T03:26:44.766Z,8.60
2023-04-21T03:27:44.931Z,8.30
2023-04-21T03:28:45.081Z,9.10
2023-04-21T03:29:45.285Z,8.70
2023-04-21T03:30:45.442Z,8.80
2023-04-21T03:31:45.635Z,8.80
2023-04-21T03:32:45.819Z,9.10
2023-04-21T03:33:45.937Z,9.00
2023-04-21T03:34:46.116Z,8.80
2023-04-21T03:35:46.282Z,8.80
2023-04-21T03:36:46.471Z,9.10
2023-04-21T03:37:46.612Z,9.30
2023-04-21T03:38:46.802Z,8.60
2023-04-21T03:39:46.966Z,9.30
2023-04-21T03:40:47.133Z,9.00
2023-04-21T03:41:47.387Z,8.90
2023-04-21T03:42:47.516Z,9.10
2023-04-21T03:43:47.711Z,9.10
2023-04-21T03:44:47.855Z,9.40
2023-04-21T03:45:48.086Z,9.20
2023-04-21T03:46:48.184Z,9.30
2023-04-21T03:47:48.420Z,8.60
2023-04-21T03:48:48.515Z,8.70
2023-04-21T03:49:48.706Z,9.70
2023-04-21T03:50:48.857Z,9.00
2023-04-21T03:51:49.097Z,9.60
2023-04-21T03:52:49.212Z,8.90
2023-04-21T03:53:49.386Z,9.60
2023-04-21T03:54:49.586Z,9.60
2023-04-21T03:55:49.748Z,9.10
2023-04-21T03:56:49.976Z,9.30
2023-04-21T03:57:50.066Z,9.00
2023-04-21T03:58:50.233Z,9.40
2023-04-21T03:59:50.410Z,9.40
2023-04-21T04:00:50.605Z,9.90
2023-04-21T04:01:50.810Z,9.30
2023-04-21T04:02:51.072Z,9.40
2023-04-21T04:03:51.391Z,9.50
2023-04-21T04:04:51.376Z,9.20
2023-04-21T04:05:51.479Z,9.40
2023-04-21T04:06:51.654Z,9.10
2023-04-21T04:07:51.834Z,9.10
2023-04-21T04:08:52.042Z,9.40
2023-04-21T04:09:52.166Z,9.40
2023-04-21T04:10:52.362Z,9.40
2023-04-21T04:11:52.506Z,9.40
2023-04-21T04:12:52.672Z,9.70
2023-04-21T04:13:52.849Z,9.30
2023-04-21T04:14:53.051Z,9.30
2023-04-21T04:15:53.222Z,9.70
2023-04-21T04:16:53.348Z,9.20
2023-04-21T04:17:53.576Z,9.40
2023-04-21T04:18:53.711Z,9.70
2023-04-21T04:19:53.879Z,9.10
2023-04-21T04:20:54.028Z,9.30
2023-04-21T04:21:54.216Z,9.70
2023-04-21T04:22:54.427Z,9.50
2023-04-21T04:23:54.610Z,9.30
2023-04-21T04:24:54.756Z,9.20
2023-04-21T04:25:54.961Z,9.60
2023-04-21T04:26:55.140Z,9.50
2023-04-21T04:27:55.308Z,9.70
2023-04-21T04:28:55.487Z,10.00
2023-04-21T04:29:55.623Z,9.80
2023-04-21T04:30:55.867Z,9.40
2023-04-21T04:31:55.998Z,9.40
2023-04-21T04:32:56.230Z,9.40
2023-04-21T04:33:56.377Z,10.00
2023-04-21T04:34:56.532Z,9.60
2023-04-21T04:35:56.679Z,9.20
2023-04-21T04:36:56.876Z,9.20
2023-04-21T04:37:57.071Z,9.70
2023-04-21T04:38:57.248Z,9.90
2023-04-21T04:39:57.399Z,9.40
2023-04-21T04:40:57.770Z,9.50
2023-04-21T04:41:57.815Z,9.80
2023-04-21T04:42:57.930Z,9.60
2023-04-21T04:44:00.003Z,9.80
2023-04-21T04:44:58.306Z,9.30
2023-04-21T04:45:58.476Z,9.80
2023-04-21T04:46:58.714Z,9.40
2023-04-21T04:47:58.861Z,10.30
2023-04-21T04:48:59.016Z,9.30
2023-04-21T04:49:59.210Z,9.70
2023-04-21T04:50:59.397Z,9.30
2023-04-21T04:51:59.564Z,9.40
2023-04-21T04:52:59.724Z,9.90
2023-04-21T04:53:59.937Z,9.60
2023-04-21T04:55:00.120Z,9.20
2023-04-21T04:56:00.282Z,9.30
2023-04-21T04:57:00.479Z,9.30
2023-04-21T04:58:00.632Z,10.50
2023-04-21T04:59:00.821Z,9.80
2023-04-21T05:00:00.995Z,9.70
2023-04-21T05:01:01.163Z,9.70
2023-04-21T05:02:01.459Z,9.40
2023-04-21T05:03:01.649Z,9.60
2023-04-21T05:04:01.938Z,9.20
2023-04-21T05:05:02.010Z,9.90
2023-04-21T05:06:02.102Z,9.70
2023-04-21T05:07:02.243Z,9.70
2023-04-21T05:08:02.437Z,9.80
2023-04-21T05:09:02.626Z,10.00
2023-04-21T05:10:02.770Z,9.90
2023-04-21T05:11:02.961Z,9.70
2023-04-21T05:12:03.122Z,9.90
2023-04-21T05:13:03.311Z,10.10
2023-04-21T05:14:03.484Z,10.10
2023-04-21T05:15:03.647Z,9.70
2023-04-21T05:16:03.897Z,10.50
2023-04-21T05:17:04.018Z,10.00
2023-04-21T05:18:04.229Z,9.50
2023-04-21T05:19:04.385Z,9.60
2023-04-21T05:20:04.522Z,10.00
2023-04-21T05:21:04.739Z,9.80
2023-04-21T05:22:04.915Z,10.40
2023-04-21T05:23:05.058Z,10.30
2023-04-21T05:24:05.233Z,9.80
2023-04-21T05:25:05.454Z,10.10
2023-04-21T05:26:05.577Z,10.10
2023-04-21T05:27:05.733Z,10.30
2023-04-21T05:28:05.935Z,9.80
2023-04-21T05:29:06.113Z,10.20
2023-04-21T05:30:06.274Z,10.10
2023-04-21T05:31:06.442Z,9.80
2023-04-21T05:32:06.636Z,9.40
2023-04-21T05:33:06.818Z,9.70
2023-04-21T05:34:06.981Z,10.60
2023-04-21T05:35:07.127Z,9.90
2023-04-21T05:36:07.316Z,10.10
2023-04-21T05:37:07.489Z,10.00
2023-04-21T05:38:07.696Z,10.30
2023-04-21T05:39:07.825Z,10.40
2023-04-21T05:40:08.016Z,10.10
2023-04-21T05:41:08.152Z,10.00
2023-04-21T05:42:08.331Z,10.20
2023-04-21T05:43:08.532Z,10.50
2023-04-21T05:44:08.650Z,10.10
2023-04-21T05:45:08.843Z,10.30
2023-04-21T05:46:09.054Z,10.40
2023-04-21T05:47:09.176Z,10.30
2023-04-21T05:48:10.443Z,9.90
2023-04-21T05:49:09.509Z,10.20
2023-04-21T05:50:09.648Z,10.30
2023-04-21T05:51:09.889Z,10.70
2023-04-21T05:52:10.016Z,10.10
2023-04-21T05:53:10.192Z,10.40
2023-04-21T05:54:10.375Z,10.10
2023-04-21T05:55:10.541Z,10.20
2023-04-21T05:56:10.667Z,10.40
2023-04-21T05:57:10.878Z,10.50
2023-04-21T05:58:11.013Z,10.30
2023-04-21T05:59:11.210Z,10.20
2023-04-21T06:00:11.382Z,10.10
2023-04-21T06:01:11.540Z,10.10
2023-04-21T06:02:11.821Z,10.30
2023-04-21T06:03:12.037Z,10.20
2023-04-21T06:04:12.279Z,10.40
2023-04-21T06:05:12.347Z,10.40
2023-04-21T06:06:12.410Z,10.40
2023-04-21T06:07:12.581Z,10.50
2023-04-21T06:08:12.735Z,10.50
2023-04-21T06:09:12.939Z,10.70
2023-04-21T06:10:13.127Z,10.30
2023-04-21T06:11:13.282Z,10.60
2023-04-21T06:12:13.461Z,10.70
2023-04-21T06:13:13.610Z,10.20
2023-04-21T06:14:13.786Z,10.70
2023-04-21T06:15:13.979Z,10.70
2023-04-21T06:16:14.158Z,10.30
2023-04-21T06:17:14.294Z,10.80
2023-04-21T06:18:14.502Z,9.90
2023-04-21T06:19:14.648Z,10.50
2023-04-21T06:20:14.807Z,10.20
2023-04-21T06:21:14.976Z,10.80
2023-04-21T06:22:15.164Z,10.30
2023-04-21T06:23:15.306Z,10.40
2023-04-21T06:24:15.485Z,10.50
2023-04-21T06:25:15.657Z,10.30
2023-04-21T06:26:15.835Z,10.30
2023-04-21T06:27:15.997Z,10.20
2023-04-21T06:28:16.178Z,10.10
2023-04-21T06:29:16.346Z,10.30
2023-04-21T06:30:16.527Z,10.50
2023-04-21T06:31:16.733Z,10.80
2023-04-21T06:32:16.859Z,10.10
2023-04-21T06:33:17.017Z,10.60
2023-04-21T06:34:17.423Z,10.50
2023-04-21T06:35:17.457Z,9.90
2023-04-21T06:36:18.248Z,10.70
2023-04-21T06:37:17.709Z,10.70
2023-04-21T06:38:17.873Z,10.90
2023-04-21T06:39:18.061Z,10.40
2023-04-21T06:40:18.272Z,10.30
2023-04-21T06:41:18.399Z,11.10
2023-04-21T06:42:18.574Z,10.80
2023-04-21T06:43:18.720Z,10.20
2023-04-21T06:44:19.112Z,10.80
2023-04-21T06:45:19.105Z,10.60
2023-04-21T06:46:19.270Z,10.20
2023-04-21T06:47:19.547Z,10.30
2023-04-21T06:48:19.658Z,10.30
2023-04-21T06:49:20.146Z,10.80
2023-04-21T06:50:19.987Z,10.10
2023-04-21T06:51:20.127Z,10.70
2023-04-21T06:52:20.337Z,11.00
2023-04-21T06:53:20.485Z,9.70
2023-04-21T06:54:20.709Z,10.20
2023-04-21T06:55:20.832Z,10.50
2023-04-21T06:56:21.001Z,10.40
2023-04-21T06:57:21.186Z,10.00
2023-04-21T06:58:21.651Z,10.50
2023-04-21T06:59:21.667Z,11.10
2023-04-21T07:00:21.708Z,10.10
2023-04-21T07:01:21.925Z,10.00
2023-04-21T07:02:22.102Z,10.80
2023-04-21T07:03:22.394Z,10.50
2023-04-21T07:04:22.417Z,10.40
2023-04-21T07:05:22.561Z,8.70
2023-04-21T07:06:22.725Z,9.10
2023-04-21T07:07:22.941Z,9.10
2023-04-21T07:08:23.092Z,9.80
2023-04-21T07:09:23.264Z,9.40
2023-04-21T07:10:23.421Z,9.20
2023-04-21T07:11:23.624Z,9.90
2023-04-21T07:12:23.775Z,9.80
2023-04-21T07:13:23.927Z,9.70
2023-04-21T07:14:24.089Z,10.10
2023-04-21T07:15:24.300Z,9.70
2023-04-21T07:16:24.544Z,9.80
2023-04-21T07:17:24.672Z,9.30
2023-04-21T07:18:24.823Z,8.60
2023-04-21T07:19:24.997Z,8.30
2023-04-21T07:20:25.148Z,8.10
2023-04-21T07:21:25.340Z,8.60
2023-04-21T07:22:25.512Z,8.50
2023-04-21T07:23:25.689Z,8.40
2023-04-21T07:24:25.860Z,8.00
2023-04-21T07:25:26.038Z,8.30
2023-04-21T07:26:26.213Z,8.40
2023-04-21T07:27:26.401Z,8.30
2023-04-21T07:28:26.566Z,8.70
2023-04-21T07:29:26.732Z,8.30
2023-04-21T07:30:26.953Z,8.20
2023-04-21T07:31:27.121Z,8.40
2023-04-21T07:32:27.362Z,8.30
2023-04-21T07:33:27.433Z,8.90
2023-04-21T07:34:27.636Z,8.30
2023-04-21T07:35:27.967Z,8.40
2023-04-21T07:36:27.979Z,8.50
2023-04-21T07:37:28.157Z,8.60
2023-04-21T07:38:28.626Z,8.30
2023-04-21T07:39:28.521Z,8.70
2023-04-21T07:40:28.682Z,8.50
2023-04-21T07:41:28.857Z,8.40
2023-04-21T07:42:29.043Z,8.50
2023-04-21T07:43:29.208Z,8.40
2023-04-21T07:44:29.393Z,8.10
2023-04-21T07:45:29.581Z,9.00
2023-04-21T07:46:29.785Z,8.30
2023-04-21T07:47:29.924Z,7.90
2023-04-21T07:48:30.050Z,7.90
2023-04-21T07:49:30.211Z,8.10
2023-04-21T07:50:30.374Z,8.40
2023-04-21T07:51:30.576Z,8.00
2023-04-21T07:52:30.730Z,8.10
2023-04-21T07:53:31.210Z,8.10
2023-04-21T07:54:31.924Z,7.80
2023-04-21T07:55:31.236Z,7.80
2023-04-21T07:56:31.450Z,7.90
2023-04-21T07:57:31.580Z,8.30
2023-04-21T07:58:31.753Z,8.00
2023-04-21T07:59:31.922Z,7.80
2023-04-21T08:00:32.088Z,7.80
2023-04-21T08:01:32.310Z,7.70
2023-04-21T08:02:32.483Z,7.90
2023-04-21T08:03:32.887Z,7.60
2023-04-21T08:04:32.940Z,8.00
2023-04-21T08:05:36.583Z,7.90
2023-04-21T08:06:34.554Z,7.90
2023-04-21T08:07:33.366Z,8.10
2023-04-21T08:08:33.505Z,7.70
2023-04-21T08:09:33.713Z,7.50
2023-04-21T08:10:34.070Z,8.10
2023-04-21T08:11:34.066Z,8.30
2023-04-21T08:12:34.255Z,7.40
2023-04-21T08:13:34.411Z,8.10
2023-04-21T08:14:34.601Z,8.00
2023-04-21T08:15:34.839Z,8.10
2023-04-21T08:16:35.001Z,8.20
2023-04-21T08:17:35.145Z,7.40
2023-04-21T08:18:35.282Z,8.30
2023-04-21T08:19:35.466Z,7.90
2023-04-21T08:20:35.636Z,7.80
2023-04-21T08:21:35.813Z,7.60
2023-04-21T08:22:36.002Z,8.00
2023-04-21T08:23:36.157Z,7.50
2023-04-21T08:24:36.360Z,8.00
2023-04-21T08:25:36.535Z,7.60
2023-04-21T08:26:36.715Z,7.40
2023-04-21T08:27:36.894Z,7.40
2023-04-21T08:28:37.258Z,7.90
2023-04-21T08:29:37.252Z,8.10
2023-04-21T08:30:37.428Z,7.90
2023-04-21T08:31:37.684Z,7.90
2023-04-21T08:32:37.823Z,7.80
2023-04-21T08:33:43.890Z,8.30
2023-04-21T08:34:39.125Z,8.70
2023-04-21T08:35:39.599Z,8.40
2023-04-21T08:36:38.494Z,8.30
2023-04-21T08:37:38.651Z,8.00
2023-04-21T08:38:38.838Z,7.80
2023-04-21T08:39:38.996Z,7.50
2023-04-21T08:40:39.174Z,7.40
2023-04-21T08:41:39.348Z,6.90
2023-04-21T08:42:39.523Z,7.20
2023-04-21T08:43:39.708Z,7.60
2023-04-21T08:44:39.889Z,7.40
2023-04-21T08:45:40.127Z,7.60
2023-04-21T08:46:40.244Z,7.30
2023-04-21T08:47:40.431Z,7.10
2023-04-21T08:48:40.617Z,7.40
2023-04-21T08:49:40.785Z,7.50
2023-04-21T08:50:40.975Z,7.60
2023-04-21T08:51:41.153Z,8.10
2023-04-21T08:52:41.357Z,7.30
2023-04-21T08:53:41.505Z,7.60
2023-04-21T08:54:41.738Z,7.40
2023-04-21T08:55:41.855Z,7.90
2023-04-21T08:56:42.071Z,7.50
2023-04-21T08:57:42.277Z,7.20
2023-04-21T08:58:42.435Z,7.20
2023-04-21T08:59:42.568Z,7.20
2023-04-21T09:00:42.763Z,7.10
2023-04-21T09:01:43.088Z,7.20
2023-04-21T09:02:43.246Z,7.10
2023-04-21T09:03:43.345Z,7.30
2023-04-21T09:04:43.691Z,7.40
2023-04-21T09:05:44.076Z,6.70
2023-04-21T09:06:43.838Z,7.00
2023-04-21T09:07:44.037Z,7.00
2023-04-21T09:08:44.179Z,6.80
2023-04-21T09:09:44.324Z,6.90
2023-04-21T09:10:44.516Z,6.90
2023-04-21T09:11:44.699Z,6.90
2023-04-21T09:12:44.879Z,6.90
2023-04-21T09:13:45.034Z,6.70
2023-04-21T09:14:45.181Z,6.50
2023-04-21T09:15:45.341Z,7.10
2023-04-21T09:16:45.666Z,7.20
2023-04-21T09:17:45.717Z,6.70
2023-04-21T09:18:45.839Z,7.10
2023-04-21T09:19:46.027Z,6.70
2023-04-21T09:20:46.215Z,6.50
2023-04-21T09:21:46.395Z,6.90
2023-04-21T09:22:46.574Z,6.90
2023-04-21T09:23:46.710Z,6.60
2023-04-21T09:24:46.919Z,6.60
2023-04-21T09:25:47.055Z,6.80
2023-04-21T09:26:47.226Z,6.00
2023-04-21T09:27:47.423Z,6.40
2023-04-21T09:28:47.618Z,6.60
2023-04-21T09:29:47.748Z,6.90
2023-04-21T09:30:47.964Z,6.90
2023-04-21T09:31:48.082Z,6.60
2023-04-21T09:32:48.375Z,6.40
2023-04-21T09:33:57.764Z,6.60
2023-04-21T09:34:49.606Z,6.30
2023-04-21T09:35:48.759Z,6.50
2023-04-21T09:36:48.922Z,6.70
2023-04-21T09:37:49.149Z,6.50
2023-04-21T09:38:50.168Z,6.30
2023-04-21T09:39:57.316Z,6.70
2023-04-21T09:40:50.627Z,6.50
2023-04-21T09:41:49.804Z,6.40
2023-04-21T09:42:49.964Z,6.20
2023-04-21T09:43:50.124Z,6.00
2023-04-21T09:44:55.373Z,6.90
2023-04-21T09:45:51.486Z,6.50
2023-04-21T09:46:50.898Z,6.40
2023-04-21T09:47:50.933Z,6.70
2023-04-21T09:48:50.993Z,6.20
2023-04-21T09:49:51.174Z,6.20
2023-04-21T09:51:22.860Z,6.00
2023-04-21T09:52:51.693Z,6.70
2023-04-21T09:53:51.852Z,6.50
2023-04-21T09:54:52.069Z,6.00
2023-04-21T09:55:52.205Z,6.10
2023-04-21T09:56:52.401Z,6.20
2023-04-21T09:57:52.566Z,6.40
2023-04-21T09:58:52.731Z,6.30
2023-04-21T09:59:52.892Z,6.10
2023-04-21T10:00:53.107Z,6.40
2023-04-21T10:01:53.235Z,6.00
2023-04-21T10:02:53.464Z,6.40
2023-04-21T10:03:53.833Z,6.60
2023-04-21T10:04:54.008Z,6.20
2023-04-21T10:05:54.045Z,5.90
2023-04-21T10:06:54.047Z,5.90
2023-04-21T10:07:54.245Z,5.80
2023-04-21T10:08:54.400Z,6.10
2023-04-21T10:09:54.575Z,6.10
2023-04-21T10:10:54.748Z,6.00
2023-04-21T10:11:54.901Z,6.30
2023-04-21T10:12:55.092Z,6.10
2023-04-21T10:13:55.242Z,6.20
2023-04-21T10:14:55.428Z,6.10
2023-04-21T10:15:55.572Z,6.20
2023-04-21T10:16:55.738Z,6.20
2023-04-21T10:17:55.956Z,5.70
2023-04-21T10:18:56.070Z,5.80
2023-04-21T10:19:56.252Z,5.70
2023-04-21T10:20:56.481Z,5.90
2023-04-21T10:21:56.653Z,6.10
2023-04-21T10:22:56.812Z,5.90
2023-04-21T10:23:57.002Z,6.10
2023-04-21T10:24:57.153Z,6.10
2023-04-21T10:25:57.303Z,6.00
2023-04-21T10:26:57.498Z,6.00
2023-04-21T10:27:57.717Z,6.40
2023-04-21T10:28:57.840Z,5.50
2023-04-21T10:29:58.020Z,6.20
2023-04-21T10:30:58.194Z,5.80
2023-04-21T10:31:58.384Z,6.10
2023-04-21T10:32:58.563Z,5.80
2023-04-21T10:33:58.700Z,5.90
2023-04-21T10:34:58.862Z,5.80
2023-04-21T10:35:59.049Z,5.90
2023-04-21T10:36:59.207Z,5.90
2023-04-21T10:37:59.363Z,6.10
2023-04-21T10:38:59.570Z,5.90
2023-04-21T10:39:59.728Z,5.80
2023-04-21T10:40:59.944Z,5.50
2023-04-21T10:42:00.194Z,6.00
2023-04-21T10:43:00.283Z,5.80
2023-04-21T10:44:00.443Z,5.70
2023-04-21T10:45:00.603Z,5.50
2023-04-21T10:46:00.753Z,5.50
2023-04-21T10:47:00.979Z,5.30
2023-04-21T10:48:01.130Z,5.80
2023-04-21T10:49:01.299Z,5.50
2023-04-21T10:50:01.448Z,5.80
2023-04-21T10:51:01.613Z,5.50
2023-04-21T10:52:01.773Z,5.90
2023-04-21T10:53:01.961Z,5.70
2023-04-21T10:54:02.086Z,5.60
2023-04-21T10:55:02.273Z,5.90
2023-04-21T10:56:02.446Z,5.60
2023-04-21T10:57:02.615Z,6.20
2023-04-21T10:58:02.781Z,5.40
2023-04-21T10:59:02.941Z,5.80
2023-04-21T11:00:03.114Z,6.30
2023-04-21T11:01:03.321Z,6.00
2023-04-21T11:02:03.487Z,6.00
2023-04-21T11:03:03.681Z,5.70
2023-04-21T11:04:03.910Z,6.00
2023-04-21T11:05:04.040Z,5.70
2023-04-21T11:06:04.142Z,5.50
2023-04-21T11:07:04.304Z,5.60
2023-04-21T11:08:04.469Z,5.90
2023-04-21T11:09:04.623Z,5.30
2023-04-21T11:10:04.786Z,6.00
2023-04-21T11:11:04.941Z,5.90
2023-04-21T11:12:05.095Z,5.60
2023-04-21T11:13:05.250Z,5.60
2023-04-21T11:14:05.408Z,5.10
2023-04-21T11:15:05.577Z,5.50
2023-04-21T11:16:05.736Z,5.50
2023-04-21T11:17:05.945Z,5.60
2023-04-21T11:18:06.117Z,5.50
2023-04-21T11:19:06.241Z,5.50
2023-04-21T11:20:06.384Z,6.10
2023-04-21T11:21:06.584Z,5.60
2023-04-21T11:22:06.757Z,5.40
2023-04-21T11:23:06.947Z,5.60
2023-04-21T11:24:07.093Z,5.80
2023-04-21T11:25:07.288Z,5.60
2023-04-21T11:26:07.436Z,5.50
2023-04-21T11:27:07.615Z,5.60
2023-04-21T11:28:07.792Z,5.60
2023-04-21T11:29:07.948Z,6.10
2023-04-21T11:30:08.136Z,5.20
2023-04-21T11:31:08.344Z,5.10
2023-04-21T11:32:08.499Z,6.00
2023-04-21T11:33:08.703Z,5.60
2023-04-21T11:34:08.842Z,5.70
2023-04-21T11:35:09.046Z,5.70
2023-04-21T11:36:09.206Z,5.60
2023-04-21T11:37:09.368Z,5.50
2023-04-21T11:38:16.508Z,5.20
2023-04-21T11:39:09.682Z,5.80
2023-04-21T11:40:09.837Z,5.50
2023-04-21T11:41:10.057Z,5.30
2023-04-21T11:42:10.251Z,5.50
2023-04-21T11:43:10.392Z,5.60
2023-04-21T11:44:10.584Z,5.70
2023-04-21T11:45:10.751Z,5.70
2023-04-21T11:46:10.976Z,5.40
2023-04-21T11:47:11.123Z,5.40
2023-04-21T11:48:11.314Z,5.30
2023-04-21T11:49:11.464Z,5.70
2023-04-21T11:50:11.722Z,5.70
2023-04-21T11:51:11.779Z,5.60
2023-04-21T11:52:11.966Z,5.30
2023-04-21T11:53:12.102Z,5.30
2023-04-21T11:54:12.313Z,5.80
2023-04-21T11:55:12.493Z,5.60
2023-04-21T11:56:12.632Z,5.30
2023-04-21T11:57:12.812Z,5.90
2023-04-21T11:58:12.976Z,5.60
2023-04-21T11:59:13.176Z,5.40
2023-04-21T12:00:13.330Z,5.20
2023-04-21T12:01:13.512Z,5.50
2023-04-21T12:02:13.762Z,5.40
2023-04-21T12:03:14.010Z,4.90
2023-04-21T12:04:14.115Z,5.60
2023-04-21T12:05:14.194Z,5.70
2023-04-21T12:06:14.452Z,5.70
2023-04-21T12:07:14.528Z,5.20
2023-04-21T12:08:14.668Z,5.90
2023-04-21T12:09:14.873Z,5.70
2023-04-21T12:10:15.027Z,5.40
2023-04-21T12:11:15.208Z,5.60
2023-04-21T12:12:15.371Z,5.40
2023-04-21T12:13:17.035Z,5.50
2023-04-21T12:14:15.704Z,5.50
2023-04-21T12:15:15.924Z,5.40
2023-04-21T12:16:16.146Z,5.60
2023-04-21T12:17:16.243Z,5.30
2023-04-21T12:18:16.426Z,5.40
2023-04-21T12:19:16.592Z,5.60
2023-04-21T12:20:16.854Z,5.70
2023-04-21T12:21:16.936Z,5.30
2023-04-21T12:22:17.140Z,5.10
2023-04-21T12:23:17.293Z,5.10
2023-04-21T12:24:17.499Z,5.20
2023-04-21T12:25:17.661Z,5.30
2023-04-21T12:26:17.839Z,4.90
2023-04-21T12:27:18.068Z,5.40
2023-04-21T12:28:18.170Z,5.30
2023-04-21T12:29:18.417Z,5.10
2023-04-21T12:30:18.517Z,5.00
2023-04-21T12:31:18.750Z,5.00
2023-04-21T12:32:18.867Z,5.40
2023-04-21T12:33:19.083Z,5.40
2023-04-21T12:34:19.180Z,5.70
2023-04-21T12:35:19.356Z,5.80
2023-04-21T12:36:19.512Z,6.00
2023-04-21T12:37:19.676Z,5.70
2023-04-21T12:38:19.870Z,5.60
2023-04-21T12:39:20.018Z,5.60
2023-04-21T12:40:20.168Z,5.70
2023-04-21T12:41:20.346Z,6.10
2023-04-21T12:42:20.586Z,5.80
2023-04-21T12:43:20.697Z,6.30
2023-04-21T12:44:20.887Z,5.90
2023-04-21T12:45:21.045Z,6.00
2023-04-21T12:46:21.441Z,5.90
2023-04-21T12:47:21.504Z,5.70
2023-04-21T12:48:21.631Z,6.00
2023-04-21T12:49:21.748Z,6.10
2023-04-21T12:50:22.046Z,6.30
2023-04-21T12:51:22.110Z,6.20
2023-04-21T12:52:22.270Z,6.00
2023-04-21T12:53:22.419Z,5.70
2023-04-21T12:54:22.612Z,6.10
2023-04-21T12:55:22.775Z,5.80
2023-04-21T12:56:22.941Z,6.20
2023-04-21T12:57:23.114Z,5.80
2023-04-21T12:58:23.267Z,5.80
2023-04-21T12:59:23.424Z,5.60
2023-04-21T13:00:23.595Z,6.30
2023-04-21T13:01:23.841Z,6.30
2023-04-21T13:02:24.174Z,6.10
2023-04-21T13:03:24.291Z,6.00
2023-04-21T13:04:24.913Z,6.00
2023-04-21T13:05:24.487Z,6.10
2023-04-21T13:06:24.648Z,6.10
2023-04-21T13:07:24.838Z,5.60
2023-04-21T13:08:25.015Z,5.80
2023-04-21T13:09:25.182Z,6.10
2023-04-21T13:10:25.334Z,6.00
2023-04-21T13:11:25.528Z,6.20
2023-04-21T13:12:25.683Z,5.90
2023-04-21T13:13:25.849Z,5.90
2023-04-21T13:14:26.026Z,6.10
2023-04-21T13:15:26.172Z,6.10
2023-04-21T13:16:28.654Z,6.00
2023-04-21T13:17:26.564Z,6.20
2023-04-21T13:18:26.728Z,6.20